createdAt,value
2023-01-26T00:02:06.737Z,100974.40
2023-01-26T00:04:35.112Z,100969.05
2023-01-26T00:07:03.493Z,100968.52
2023-01-26T00:09:31.789Z,100963.84
2023-01-26T00:12:00.099Z,100964.20
2023-01-26T00:14:48.615Z,100964.20
2023-01-26T00:17:27.064Z,100961.79
2023-01-26T00:19:58.302Z,100960.39
2023-01-26T00:22:27.888Z,100958.34
2023-01-26T00:24:56.330Z,100957.61
2023-01-26T00:27:24.641Z,100959.47
2023-01-26T00:29:53.083Z,100962.70
2023-01-26T00:32:21.487Z,100961.82
2023-01-26T00:34:49.865Z,100956.23
2023-01-26T00:37:18.630Z,100954.25
2023-01-26T00:39:47.186Z,100951.13
2023-01-26T00:42:15.974Z,100952.82
2023-01-26T00:44:44.923Z,100947.45
2023-01-26T00:47:14.290Z,100949.70
2023-01-26T00:49:43.233Z,100951.44
2023-01-26T00:52:12.949Z,100955.07
2023-01-26T00:54:41.244Z,100956.42
2023-01-26T00:57:10.452Z,100954.14
2023-01-26T00:59:38.757Z,100952.79
2023-01-26T01:02:07.246Z,100950.26
2023-01-26T01:04:35.668Z,100950.60
2023-01-26T01:07:04.062Z,100955.10
2023-01-26T01:09:32.375Z,100952.83
2023-01-26T01:12:00.761Z,100949.88
2023-01-26T01:14:29.066Z,100950.52
2023-01-26T01:16:57.487Z,100948.45
2023-01-26T01:19:27.318Z,100949.66
2023-01-26T01:21:55.944Z,100941.08
2023-01-26T01:24:24.413Z,100945.84
2023-01-26T01:26:52.795Z,100942.73
2023-01-26T01:29:21.099Z,100947.48
2023-01-26T01:31:49.485Z,100941.98
2023-01-26T01:34:17.850Z,100944.27
2023-01-26T01:36:46.328Z,100943.23
2023-01-26T01:41:43.135Z,100943.81
2023-01-26T01:44:25.919Z,100940.11
2023-01-26T01:47:02.271Z,100934.48
2023-01-26T01:49:38.585Z,100934.16
2023-01-26T01:52:17.661Z,100925.42
2023-01-26T01:54:56.496Z,100927.04
2023-01-26T01:57:44.779Z,100923.65
2023-01-26T02:00:18.570Z,100918.85
2023-01-26T02:03:14.644Z,100912.87
2023-01-26T02:06:15.987Z,100905.80
2023-01-26T02:08:51.796Z,100902.96
2023-01-26T02:11:40.600Z,100895.41
2023-01-26T02:14:11.598Z,100899.92
2023-01-26T02:16:40.111Z,100892.17
2023-01-26T02:19:21.409Z,100891.81
2023-01-26T02:21:52.485Z,100884.77
2023-01-26T02:24:28.871Z,100883.28
2023-01-26T02:26:57.198Z,100877.89
2023-01-26T02:29:25.551Z,100874.14
2023-01-26T02:31:54.772Z,100874.70
2023-01-26T02:34:25.209Z,100867.57
2023-01-26T02:37:00.668Z,100864.23
2023-01-26T02:39:41.780Z,100860.18
2023-01-26T02:42:29.147Z,100848.67
2023-01-26T02:44:57.569Z,100851.91
2023-01-26T02:47:26.084Z,100850.11
2023-01-26T02:49:54.373Z,100844.23
2023-01-26T02:52:29.490Z,100842.27
2023-01-26T02:55:16.805Z,100839.85
2023-01-26T02:57:46.066Z,100837.48
2023-01-26T03:00:18.164Z,100840.48
2023-01-26T03:02:48.190Z,100836.80
2023-01-26T03:05:16.777Z,100833.02
2023-01-26T03:07:45.554Z,100832.66
2023-01-26T03:10:16.111Z,100828.52
2023-01-26T03:12:46.142Z,100824.54
2023-01-26T03:15:32.848Z,100824.25
2023-01-26T03:18:27.002Z,100824.99
2023-01-26T03:21:14.410Z,100819.38
2023-01-26T03:24:01.083Z,100817.71
2023-01-26T03:26:48.580Z,100816.41
2023-01-26T03:29:17.515Z,100811.46
2023-01-26T03:31:46.096Z,100808.23
2023-01-26T03:34:14.549Z,100805.61
2023-01-26T03:36:43.406Z,100805.27
2023-01-26T03:39:32.748Z,100803.60
2023-01-26T03:42:20.249Z,100799.00
2023-01-26T03:45:07.197Z,100794.55
2023-01-26T03:47:55.373Z,100794.39
2023-01-26T03:50:42.760Z,100793.06
2023-01-26T03:53:38.693Z,100791.45
2023-01-26T03:56:22.153Z,100790.33
2023-01-26T03:59:08.321Z,100786.95
2023-01-26T04:02:02.542Z,100784.42
2023-01-26T04:04:50.158Z,100788.67
2023-01-26T04:07:37.222Z,100789.01
2023-01-26T04:10:06.330Z,100787.02
2023-01-26T04:12:34.632Z,100787.23
2023-01-26T04:15:21.948Z,100784.46
2023-01-26T04:18:08.594Z,100782.08
2023-01-26T04:20:55.531Z,100784.34
2023-01-26T04:23:23.825Z,100784.32
2023-01-26T04:25:52.248Z,100780.20
2023-01-26T04:28:20.637Z,100779.35
2023-01-26T04:30:49.566Z,100775.17
2023-01-26T04:33:17.895Z,100768.98
2023-01-26T04:35:46.206Z,100770.02
2023-01-26T04:38:14.535Z,100768.48
2023-01-26T04:40:42.840Z,100768.79
2023-01-26T04:43:11.220Z,100761.02
2023-01-26T04:45:39.497Z,100756.98
2023-01-26T04:48:07.844Z,100754.02
2023-01-26T04:50:36.224Z,100749.61
2023-01-26T04:53:05.702Z,100745.60
2023-01-26T04:55:34.034Z,100745.55
2023-01-26T04:58:03.706Z,100741.90
2023-01-26T05:00:32.256Z,100743.58
2023-01-26T05:03:00.546Z,100746.48
2023-01-26T05:05:28.870Z,100744.59
2023-01-26T05:07:57.175Z,100748.41
2023-01-26T05:10:25.865Z,100744.13
2023-01-26T05:12:54.200Z,100743.06
2023-01-26T05:15:22.912Z,100747.72
2023-01-26T05:17:51.568Z,100745.70
2023-01-26T05:20:19.905Z,100744.52
2023-01-26T05:22:48.245Z,100742.50
2023-01-26T05:25:16.634Z,100739.27
2023-01-26T05:27:44.979Z,100743.77
2023-01-26T05:30:14.838Z,100742.86
2023-01-26T05:32:43.406Z,100743.19
2023-01-26T05:35:11.760Z,100736.52
2023-01-26T05:37:42.372Z,100738.96
2023-01-26T05:40:12.850Z,100739.13
2023-01-26T05:42:43.470Z,100739.16
2023-01-26T05:45:11.863Z,100736.10
2023-01-26T05:47:40.332Z,100739.06
2023-01-26T05:50:09.466Z,100740.59
2023-01-26T05:52:38.020Z,100738.04
2023-01-26T05:55:07.029Z,100734.66
2023-01-26T05:57:36.440Z,100737.96
2023-01-26T06:00:06.488Z,100736.13
2023-01-26T06:02:34.921Z,100731.51
2023-01-26T06:05:04.076Z,100733.96
2023-01-26T06:07:32.775Z,100730.88
2023-01-26T06:10:01.174Z,100732.44
2023-01-26T06:12:35.293Z,100729.67
2023-01-26T06:15:05.023Z,100726.12
2023-01-26T06:17:33.309Z,100727.19
2023-01-26T06:20:01.687Z,100724.48
2023-01-26T06:22:29.989Z,100723.32
2023-01-26T06:24:58.347Z,100721.66
2023-01-26T06:27:26.658Z,100723.80
2023-01-26T06:29:54.964Z,100720.11
2023-01-26T06:32:23.611Z,100720.51
2023-01-26T06:34:53.343Z,100720.54
2023-01-26T06:37:21.640Z,100721.91
2023-01-26T06:39:50.027Z,100722.46
2023-01-26T06:42:18.386Z,100725.04
2023-01-26T06:44:46.690Z,100723.16
2023-01-26T06:47:15.025Z,100725.29
2023-01-26T06:49:43.360Z,100723.98
2023-01-26T06:52:35.711Z,100725.03
2023-01-26T06:55:05.005Z,100724.89
2023-01-26T06:57:33.252Z,100721.60
2023-01-26T07:00:01.860Z,100724.52
2023-01-26T07:02:30.403Z,100726.77
2023-01-26T07:04:58.894Z,100730.70
2023-01-26T07:07:27.255Z,100729.94
2023-01-26T07:09:55.562Z,100727.99
2023-01-26T07:12:24.092Z,100729.85
2023-01-26T07:14:52.454Z,100729.10
2023-01-26T07:17:20.717Z,100728.14
2023-01-26T07:19:49.048Z,100732.48
2023-01-26T07:22:17.391Z,100730.86
2023-01-26T07:24:45.686Z,100730.99
2023-01-26T07:27:13.985Z,100727.13
2023-01-26T07:29:42.301Z,100726.35
2023-01-26T07:32:10.579Z,100727.63
2023-01-26T07:34:38.891Z,100726.20
2023-01-26T07:37:07.257Z,100719.20
2023-01-26T07:39:35.578Z,100722.48
2023-01-26T07:42:04.124Z,100724.60
2023-01-26T07:44:32.604Z,100725.66
2023-01-26T07:47:01.028Z,100721.99
2023-01-26T07:49:29.349Z,100718.77
2023-01-26T07:51:57.648Z,100720.09
2023-01-26T07:54:26.237Z,100716.44
2023-01-26T07:56:55.235Z,100711.77
2023-01-26T07:59:24.343Z,100717.11
2023-01-26T08:01:52.835Z,100718.98
2023-01-26T08:04:21.125Z,100717.48
2023-01-26T08:06:52.313Z,100715.60
2023-01-26T08:09:20.676Z,100719.09
2023-01-26T08:11:49.039Z,100719.35
2023-01-26T08:14:17.362Z,100713.63
2023-01-26T08:16:46.362Z,100711.29
2023-01-26T08:19:14.871Z,100713.00
2023-01-26T08:21:43.192Z,100711.42
2023-01-26T08:24:12.959Z,100711.62
2023-01-26T08:26:41.604Z,100710.13
2023-01-26T08:29:09.917Z,100714.48
2023-01-26T08:31:38.425Z,100713.85
2023-01-26T08:34:06.861Z,100715.55
2023-01-26T08:36:35.139Z,100716.75
2023-01-26T08:39:04.418Z,100721.55
2023-01-26T08:41:33.557Z,100719.95
2023-01-26T08:44:02.050Z,100720.70
2023-01-26T08:46:30.403Z,100712.96
2023-01-26T08:49:00.500Z,100710.27
2023-01-26T08:51:28.996Z,100714.63
2023-01-26T08:53:57.684Z,100715.69
2023-01-26T08:56:27.102Z,100715.33
2023-01-26T08:58:55.529Z,100722.30
2023-01-26T09:01:23.851Z,100720.88
2023-01-26T09:03:53.156Z,100723.08
2023-01-26T09:06:22.121Z,100723.57
2023-01-26T09:08:50.438Z,100723.55
2023-01-26T09:11:18.691Z,100730.75
2023-01-26T09:13:56.555Z,100728.09
2023-01-26T09:16:25.573Z,100732.69
2023-01-26T09:18:54.150Z,100729.95
2023-01-26T09:21:24.110Z,100723.59
2023-01-26T09:23:52.681Z,100721.57
2023-01-26T09:26:21.231Z,100724.62
2023-01-26T09:28:52.259Z,100718.73
2023-01-26T09:31:20.885Z,100717.89
2023-01-26T09:33:50.816Z,100714.30
2023-01-26T09:36:19.385Z,100717.25
2023-01-26T09:38:47.956Z,100711.98
2023-01-26T09:41:45.101Z,100710.52
2023-01-26T09:44:23.296Z,100702.52
2023-01-26T09:47:08.821Z,100698.68
2023-01-26T09:49:57.549Z,100699.77
2023-01-26T09:52:35.636Z,100700.32
2023-01-26T09:55:15.785Z,100700.83
2023-01-26T09:57:49.430Z,100696.94
2023-01-26T10:00:33.394Z,100690.25
2023-01-26T10:03:38.080Z,100691.33
2023-01-26T10:06:28.672Z,100691.43
2023-01-26T10:09:24.783Z,100693.70
2023-01-26T10:12:04.682Z,100687.81
2023-01-26T10:14:42.898Z,100684.02
2023-01-26T10:17:19.462Z,100684.86
2023-01-26T10:20:06.693Z,100684.45
2023-01-26T10:22:54.100Z,100673.08
2023-01-26T10:25:34.943Z,100669.58
2023-01-26T10:28:30.363Z,100669.30
2023-01-26T10:30:58.877Z,100670.85
2023-01-26T10:33:33.674Z,100670.28
2023-01-26T10:36:06.709Z,100664.34
2023-01-26T10:38:37.953Z,100665.39
2023-01-26T10:41:28.726Z,100666.80
2023-01-26T10:44:01.111Z,100672.02
2023-01-26T10:46:39.397Z,100671.13
2023-01-26T10:49:11.571Z,100675.91
2023-01-26T10:52:06.342Z,100671.86
2023-01-26T10:54:37.098Z,100679.01
2023-01-26T10:57:19.684Z,100680.92
2023-01-26T11:00:19.870Z,100677.10
2023-01-26T11:02:56.299Z,100670.84
2023-01-26T11:05:26.781Z,100670.43
2023-01-26T11:08:02.265Z,100668.52
2023-01-26T11:10:38.361Z,100666.24
2023-01-26T11:13:21.161Z,100670.13
2023-01-26T11:16:03.255Z,100672.41
2023-01-26T11:18:53.663Z,100667.92
2023-01-26T11:21:40.442Z,100662.70
2023-01-26T11:24:21.356Z,100653.07
2023-01-26T11:27:14.601Z,100648.48
2023-01-26T11:29:59.979Z,100643.54
2023-01-26T11:32:47.136Z,100638.27
2023-01-26T11:35:53.473Z,100636.02
2023-01-26T11:38:43.046Z,100635.06
2023-01-26T11:41:27.516Z,100630.52
2023-01-26T11:44:09.581Z,100633.70
2023-01-26T11:46:40.985Z,100631.10
2023-01-26T11:49:15.404Z,100628.28
2023-01-26T11:52:54.939Z,100627.67
2023-01-26T11:56:07.392Z,100622.80
2023-01-26T11:58:55.849Z,100618.00
2023-01-26T12:01:30.030Z,100617.52
2023-01-26T12:03:58.953Z,100615.48
2023-01-26T12:06:45.615Z,100614.94
2023-01-26T12:09:21.428Z,100617.23
2023-01-26T12:12:26.592Z,100606.83
2023-01-26T12:15:13.013Z,100601.34
2023-01-26T12:18:15.558Z,100598.45
2023-01-26T12:20:50.175Z,100602.33
2023-01-26T12:23:51.114Z,100602.25
2023-01-26T12:26:23.577Z,100604.56
2023-01-26T12:29:31.453Z,100602.30
2023-01-26T12:32:13.503Z,100595.90
2023-01-26T12:34:41.885Z,100591.70
2023-01-26T12:37:47.802Z,100592.96
2023-01-26T12:40:57.850Z,100589.58
2023-01-26T12:44:09.211Z,100589.59
2023-01-26T12:46:44.009Z,100589.83
2023-01-26T12:49:26.312Z,100585.06
2023-01-26T12:52:02.458Z,100587.58
2023-01-26T12:54:54.917Z,100587.17
2023-01-26T12:57:32.981Z,100585.37
2023-01-26T13:00:31.293Z,100583.89
2023-01-26T13:03:15.599Z,100586.33
2023-01-26T13:06:09.415Z,100582.14
2023-01-26T13:08:37.665Z,100576.92
2023-01-26T13:11:08.227Z,100575.34
2023-01-26T13:13:57.691Z,100575.77
2023-01-26T13:16:26.282Z,100572.77
2023-01-26T13:18:57.115Z,100573.20
2023-01-26T13:21:40.481Z,100569.87
2023-01-26T13:24:17.999Z,100564.14
2023-01-26T13:26:57.895Z,100564.94
2023-01-26T13:29:27.347Z,100568.42
2023-01-26T13:31:58.239Z,100570.29
2023-01-26T13:34:43.453Z,100571.22
2023-01-26T13:37:26.397Z,100574.30
2023-01-26T13:40:31.326Z,100575.00
2023-01-26T13:43:28.585Z,100574.44
2023-01-26T13:46:09.856Z,100575.45
2023-01-26T13:48:52.940Z,100577.39
2023-01-26T13:51:34.719Z,100579.52
2023-01-26T13:54:05.909Z,100575.10
2023-01-26T13:56:39.004Z,100573.22
2023-01-26T13:59:12.927Z,100573.73
2023-01-26T14:01:50.463Z,100568.39
2023-01-26T14:04:32.065Z,100567.52
2023-01-26T14:07:15.590Z,100562.70
2023-01-26T14:09:50.514Z,100557.08
2023-01-26T14:12:27.443Z,100555.39
2023-01-26T14:15:07.342Z,100553.92
2023-01-26T14:17:48.800Z,100557.27
2023-01-26T14:20:28.023Z,100557.70
2023-01-26T14:23:15.083Z,100560.83
2023-01-26T14:26:06.571Z,100558.35
2023-01-26T14:28:40.969Z,100555.96
2023-01-26T14:31:27.157Z,100555.67
2023-01-26T14:33:59.231Z,100560.24
2023-01-26T14:36:34.012Z,100559.97
2023-01-26T14:39:02.615Z,100558.11
2023-01-26T14:41:34.815Z,100561.85
2023-01-26T14:44:06.031Z,100557.25
2023-01-26T14:47:08.173Z,100560.17
2023-01-26T14:49:53.407Z,100559.66
2023-01-26T14:52:51.777Z,100562.45
2023-01-26T14:55:31.789Z,100565.21
2023-01-26T14:58:03.313Z,100558.68
2023-01-26T15:00:37.950Z,100554.08
2023-01-26T15:03:15.065Z,100554.25
2023-01-26T15:05:44.711Z,100553.48
2023-01-26T15:08:23.783Z,100553.75
2023-01-26T15:11:19.778Z,100549.20
2023-01-26T15:13:54.113Z,100550.58
2023-01-26T15:16:26.018Z,100552.84
2023-01-26T15:18:59.339Z,100552.63
2023-01-26T15:21:44.378Z,100550.38
2023-01-26T15:24:15.138Z,100551.02
2023-01-26T15:26:44.568Z,100550.27
2023-01-26T15:29:31.716Z,100552.65
2023-01-26T15:32:01.006Z,100558.63
2023-01-26T15:34:36.748Z,100556.27
2023-01-26T15:37:32.044Z,100558.84
2023-01-26T15:40:00.443Z,100560.14
2023-01-26T15:42:30.210Z,100555.80
2023-01-26T15:44:58.971Z,100553.76
2023-01-26T15:47:27.452Z,100554.10
2023-01-26T15:49:57.263Z,100556.16
2023-01-26T15:52:30.453Z,100555.66
2023-01-26T15:54:58.850Z,100554.50
2023-01-26T15:57:27.245Z,100551.77
2023-01-26T15:59:55.618Z,100555.06
2023-01-26T16:02:24.025Z,100554.58
2023-01-26T16:04:52.478Z,100554.44
2023-01-26T16:07:20.988Z,100554.29
2023-01-26T16:09:51.019Z,100556.02
2023-01-26T16:12:30.807Z,100556.56
2023-01-26T16:15:00.252Z,100561.74
2023-01-26T16:17:28.907Z,100563.16
2023-01-26T16:19:57.575Z,100561.97
2023-01-26T16:22:25.924Z,100558.05
2023-01-26T16:24:54.841Z,100561.24
2023-01-26T16:27:23.719Z,100562.05
2023-01-26T16:29:52.161Z,100562.52
2023-01-26T16:32:29.286Z,100563.31
2023-01-26T16:34:57.742Z,100560.14
2023-01-26T16:37:26.078Z,100557.44
2023-01-26T16:39:54.476Z,100562.01
2023-01-26T16:42:22.916Z,100558.77
2023-01-26T16:44:51.429Z,100560.22
2023-01-26T16:47:19.793Z,100558.77
2023-01-26T16:49:48.219Z,100558.95
2023-01-26T16:52:16.675Z,100559.02
2023-01-26T16:54:48.184Z,100564.39
2023-01-26T16:57:17.020Z,100561.97
2023-01-26T16:59:45.525Z,100564.24
2023-01-26T17:02:26.917Z,100561.51
2023-01-26T17:04:55.462Z,100562.73
2023-01-26T17:07:23.859Z,100563.25
2023-01-26T17:09:52.234Z,100567.55
2023-01-26T17:12:20.722Z,100566.02
2023-01-26T17:14:49.153Z,100564.39
2023-01-26T17:17:17.517Z,100564.40
2023-01-26T17:19:45.858Z,100564.60
2023-01-26T17:22:15.320Z,100568.43
2023-01-26T17:24:43.763Z,100571.03
2023-01-26T17:27:13.072Z,100573.98
2023-01-26T17:29:42.309Z,100575.71
2023-01-26T17:32:11.331Z,100574.90
2023-01-26T17:34:39.659Z,100578.71
2023-01-26T17:37:07.993Z,100577.88
2023-01-26T17:39:36.278Z,100572.86
2023-01-26T17:42:04.658Z,100572.87
2023-01-26T17:44:33.030Z,100574.58
2023-01-26T17:47:01.385Z,100573.73
2023-01-26T17:49:29.775Z,100573.39
2023-01-26T17:51:58.410Z,100572.57
2023-01-26T17:54:26.850Z,100573.27
2023-01-26T17:56:55.585Z,100570.35
2023-01-26T17:59:25.302Z,100567.41
2023-01-26T18:01:53.667Z,100564.98
2023-01-26T18:04:22.024Z,100567.20
2023-01-26T18:06:50.456Z,100562.36
2023-01-26T18:09:19.090Z,100567.51
2023-01-26T18:11:48.610Z,100561.64
2023-01-26T18:14:17.223Z,100560.43
2023-01-26T18:16:45.676Z,100561.98
2023-01-26T18:19:14.305Z,100562.89
2023-01-26T18:21:42.777Z,100564.34
2023-01-26T18:24:11.105Z,100565.63
2023-01-26T18:26:39.968Z,100567.89
2023-01-26T18:29:08.871Z,100566.50
2023-01-26T18:31:42.410Z,100567.36
2023-01-26T18:34:11.676Z,100571.09
2023-01-26T18:36:40.022Z,100569.19
2023-01-26T18:39:13.146Z,100566.04
2023-01-26T18:41:43.305Z,100568.45
2023-01-26T18:44:11.706Z,100565.16
2023-01-26T18:46:40.084Z,100566.48
2023-01-26T18:49:10.468Z,100565.60
2023-01-26T18:51:38.931Z,100570.59
2023-01-26T18:54:09.581Z,100570.24
2023-01-26T18:56:37.912Z,100577.64
2023-01-26T18:59:10.460Z,100581.23
2023-01-26T19:01:39.790Z,100583.85
2023-01-26T19:04:08.229Z,100586.01
2023-01-26T19:06:36.644Z,100586.23
2023-01-26T19:09:08.229Z,100589.52
2023-01-26T19:11:38.681Z,100589.31
2023-01-26T19:14:08.076Z,100595.16
2023-01-26T19:16:36.795Z,100591.70
2023-01-26T19:19:05.329Z,100591.16
2023-01-26T19:21:34.209Z,100596.50
2023-01-26T19:24:06.127Z,100592.35
2023-01-26T19:26:35.000Z,100595.50
2023-01-26T19:29:05.067Z,100600.20
2023-01-26T19:31:35.522Z,100599.73
2023-01-26T19:34:10.306Z,100593.15
2023-01-26T19:36:38.761Z,100598.63
2023-01-26T19:39:07.341Z,100598.80
2023-01-26T19:41:35.701Z,100602.61
2023-01-26T19:44:04.817Z,100602.11
2023-01-26T19:46:33.949Z,100601.98
2023-01-26T19:49:02.530Z,100602.55
2023-01-26T19:51:31.317Z,100599.36
2023-01-26T19:54:00.078Z,100591.81
2023-01-26T19:56:32.550Z,100592.15
2023-01-26T19:59:06.694Z,100586.95
2023-01-26T20:01:35.062Z,100589.54
2023-01-26T20:04:12.520Z,100591.46
2023-01-26T20:06:40.895Z,100590.95
2023-01-26T20:09:09.487Z,100587.89
2023-01-26T20:11:38.102Z,100586.77
2023-01-26T20:14:10.873Z,100586.60
2023-01-26T20:16:39.754Z,100588.70
2023-01-26T20:19:08.158Z,100588.39
2023-01-26T20:21:38.749Z,100584.99
2023-01-26T20:24:10.926Z,100584.64
2023-01-26T20:26:39.432Z,100583.08
2023-01-26T20:29:08.226Z,100581.86
2023-01-26T20:31:36.549Z,100583.20
2023-01-26T20:34:05.188Z,100579.27
2023-01-26T20:36:33.980Z,100581.84
2023-01-26T20:39:04.558Z,100579.42
2023-01-26T20:41:33.300Z,100575.39
2023-01-26T20:44:05.376Z,100575.31
2023-01-26T20:46:40.413Z,100577.96
2023-01-26T20:49:14.061Z,100578.39
2023-01-26T20:51:45.334Z,100580.23
2023-01-26T20:54:16.507Z,100577.40
2023-01-26T20:56:49.893Z,100574.74
2023-01-26T20:59:19.022Z,100572.20
2023-01-26T21:01:47.490Z,100573.26
2023-01-26T21:04:15.842Z,100571.23
2023-01-26T21:06:45.028Z,100572.61
2023-01-26T21:09:13.363Z,100571.73
2023-01-26T21:11:41.770Z,100569.74
2023-01-26T21:14:12.827Z,100566.35
2023-01-26T21:16:41.845Z,100566.02
2023-01-26T21:19:10.227Z,100568.87
2023-01-26T21:21:38.621Z,100565.61
2023-01-26T21:24:07.445Z,100564.80
2023-01-26T21:26:35.884Z,100567.58
2023-01-26T21:29:05.662Z,100567.29
2023-01-26T21:31:34.591Z,100562.45
2023-01-26T21:34:03.073Z,100558.88
2023-01-26T21:36:32.761Z,100560.34
2023-01-26T21:39:01.665Z,100559.56
2023-01-26T21:41:51.475Z,100558.91
2023-01-26T21:44:24.805Z,100554.50
2023-01-26T21:46:56.935Z,100561.75
2023-01-26T21:49:25.972Z,100561.92
2023-01-26T21:52:13.323Z,100563.79
2023-01-26T21:54:41.986Z,100559.08
2023-01-26T21:57:30.447Z,100559.20
2023-01-26T21:59:59.254Z,100559.52
2023-01-26T22:02:27.674Z,100558.18
2023-01-26T22:04:56.135Z,100555.11
2023-01-26T22:07:24.514Z,100556.98
2023-01-26T22:09:52.972Z,100555.20
2023-01-26T22:12:22.962Z,100549.98
2023-01-26T22:14:52.211Z,100553.23
2023-01-26T22:17:20.584Z,100550.33
2023-01-26T22:19:49.259Z,100547.41
2023-01-26T22:22:17.650Z,100548.77
2023-01-26T22:24:46.082Z,100545.48
2023-01-26T22:27:14.430Z,100544.43
2023-01-26T22:29:42.869Z,100544.58
2023-01-26T22:32:11.559Z,100547.64
2023-01-26T22:34:40.324Z,100546.36
2023-01-26T22:37:08.644Z,100545.28
2023-01-26T22:39:36.950Z,100547.30
2023-01-26T22:42:05.378Z,100548.16
2023-01-26T22:44:36.176Z,100545.55
2023-01-26T22:47:04.951Z,100551.19
2023-01-26T22:49:33.474Z,100548.42
2023-01-26T22:52:01.836Z,100546.73
2023-01-26T22:54:30.424Z,100545.02
2023-01-26T22:56:58.855Z,100540.38
2023-01-26T22:59:27.352Z,100535.88
2023-01-26T23:01:56.033Z,100533.05
2023-01-26T23:04:24.412Z,100541.62
2023-01-26T23:06:52.893Z,100539.89
2023-01-26T23:09:21.207Z,100536.26
2023-01-26T23:11:49.729Z,100544.19
2023-01-26T23:14:18.154Z,100544.36
2023-01-26T23:16:46.480Z,100544.48
2023-01-26T23:19:14.808Z,100542.60
2023-01-26T23:21:43.115Z,100542.61
2023-01-26T23:24:11.665Z,100542.92
2023-01-26T23:26:40.009Z,100542.00
2023-01-26T23:29:08.466Z,100541.30
2023-01-26T23:31:36.887Z,100542.83
2023-01-26T23:34:05.224Z,100542.36
2023-01-26T23:36:33.511Z,100538.93
2023-01-26T23:39:01.849Z,100543.38
2023-01-26T23:41:30.714Z,100541.20
2023-01-26T23:43:59.038Z,100543.02
2023-01-26T23:46:27.508Z,100542.52
2023-01-26T23:48:55.952Z,100541.09
2023-01-26T23:51:24.263Z,100543.12
2023-01-26T23:53:52.777Z,100544.69
2023-01-26T23:56:21.169Z,100544.98
2023-01-26T23:58:49.486Z,100543.75
